Flight Track Log - Related Links

Times and Time Zones

All times are in EDT time to prevent confusion due to time zone crossing. See the JZA8990 flight status page for this flight to view local times or setup timezone preferences in your user account.

Time Position Orientation Groundspeed Altitude Reporting Facility
EDT Latitude Longitude Course Direction KTS MPH feet Rate Location/Type
Wed 05:38:04 AM 44.8667 -63.5000 360° North 10 12 400  Level Moncton Center
Wed 05:39:04 AM 44.8667 -63.5000 215° Southwest 40 46 500 900 Climbing Moncton Center
Wed 05:40:04 AM 44.8167 -63.5500 215° Southwest 180 207 2,200 1,800 Climbing Moncton Center
Wed 05:41:04 AM 44.7667 -63.5500 180° South 240 276 4,100 2,150 Climbing Moncton Center
Wed 05:42:04 AM 44.7667 -63.4333 90° East 280 322 6,500 2,600 Climbing Moncton Center
Wed 05:43:04 AM 44.8000 -63.3333 65° Northeast 290 334 9,300 2,500 Climbing Moncton Center
Wed 05:44:04 AM 44.8333 -63.2167 68° East 310 357 11,500 1,700 Climbing Moncton Center
Wed 05:45:04 AM 44.8833 -63.1000 59° Northeast 370 426 12,700 1,700 Climbing Moncton Center
Wed 05:46:04 AM 44.9333 -62.9500 65° Northeast 380 437 14,900 1,900 Climbing Moncton Center
Wed 05:47:04 AM 44.9833 -62.8333 59° Northeast 400 460 16,500 1,750 Climbing Moncton Center
Wed 05:48:04 AM 45.0500 -62.7000 55° Northeast 410 472 18,400 1,800 Climbing Moncton Center
Wed 05:49:04 AM 45.1000 -62.5667 62° Northeast 410 472 20,100 1,450 Climbing Moncton Center
Wed 05:50:04 AM 45.1667 -62.4333 55° Northeast 420 483 21,300 1,450 Climbing Moncton Center
Wed 05:51:04 AM 45.2500 -62.2833 52° Northeast 430 495 23,000 1,500 Climbing Moncton Center
Wed 05:52:04 AM 45.3167 -62.1333 58° Northeast 440 506 24,300 1,150 Climbing Moncton Center
Wed 05:53:04 AM 45.3833 -61.9833 58° Northeast 440 506 25,300 1,300 Climbing Moncton Center
Wed 05:54:04 AM 45.4667 -61.8500 48° Northeast 450 518 26,900 1,750 Climbing Moncton Center
Wed 05:55:04 AM 45.5333 -61.7000 58° Northeast 440 506 28,800 1,500 Climbing Moncton Center
Wed 05:56:04 AM 45.5833 -61.5833 58° Northeast 430 495 29,900 1,150 Climbing Moncton Center
Wed 05:57:04 AM 45.6667 -61.4333 51° Northeast 440 506 31,100 1,250 Climbing Moncton Center
Wed 05:58:04 AM 45.7333 -61.2833 57° Northeast 440 506 32,400 1,100 Climbing Moncton Center
Wed 05:59:04 AM 45.8167 -61.1333 51° Northeast 440 506 33,300 900 Climbing Moncton Center
Wed 06:00:04 AM 45.8667 -60.9833 64° Northeast 440 506 34,200 1,300 Climbing Moncton Center
Wed 06:01:04 AM 45.9500 -60.8333 51° Northeast 440 506 35,900 1,400 Climbing Moncton Center
Wed 06:02:04 AM 46.0167 -60.7167 51° Northeast 420 483 37,000 550 Climbing Moncton Center
Wed 06:03:04 AM 46.0833 -60.5667 57° Northeast 420 483 37,000  Level Moncton Center
Wed 06:04:04 AM 46.1333 -60.4167 64° Northeast 430 495 37,000  Level Moncton Center
Wed 06:05:04 AM 46.2167 -60.2833 48° Northeast 430 495 37,000  Level Moncton Center
Wed 06:06:04 AM 46.2833 -60.1333 57° Northeast 430 495 37,000  Level Moncton Center
Wed 06:07:04 AM 46.3333 -59.9833 64° Northeast 440 506 37,000  Level Moncton Center
Wed 06:08:04 AM 46.4167 -59.8333 51° Northeast 440 506 37,000  Level Moncton Center
Wed 06:09:04 AM 46.4833 -59.6833 57° Northeast 440 506 37,000  Level Moncton Center
Wed 06:10:04 AM 46.5500 -59.5333 57° Northeast 440 506 37,000  Level Gander Center
Wed 06:11:04 AM 46.6167 -59.3833 57° Northeast 440 506 37,000  Level Gander Center
Wed 06:12:04 AM 46.6833 -59.2333 57° Northeast 440 506 37,000  Level Gander Center
Wed 06:13:04 AM 46.7333 -59.1167 58° Northeast 440 506 37,000  Level Gander Center
Wed 06:14:04 AM 46.8167 -58.9333 56° Northeast 440 506 37,000  Level Gander Center
Wed 06:15:04 AM 46.8833 -58.8167 50° Northeast 440 506 37,000  Level Gander Center
Wed 06:16:04 AM 46.9500 -58.6333 62° Northeast 440 506 37,000  Level Gander Center
Wed 06:17:04 AM 47.0000 -58.4667 66° East 450 518 37,000  Level Gander Center
Wed 06:18:04 AM 47.0000 -58.3000 90° East 470 541 37,000  Level Gander Center
Wed 06:19:04 AM 47.0333 -58.1000 76° East 480 552 37,000  Level Gander Center
Wed 06:20:04 AM 47.0500 -57.9000 83° East 470 541 37,000  Level Gander Center
Wed 06:21:04 AM 47.0667 -57.7000 83° East 470 541 37,000  Level Gander Center
Wed 06:22:04 AM 47.0833 -57.5333 82° East 470 541 37,000  Level Gander Center
Wed 06:23:04 AM 47.1000 -57.3000 84° East 480 552 37,000  Level Gander Center
Wed 06:24:04 AM 47.1167 -57.1333 82° East 480 552 37,000  Level Gander Center
Wed 06:25:04 AM 47.1500 -56.9333 76° East 480 552 37,000  Level Gander Center
Wed 06:26:04 AM 47.1667 -56.7333 83° East 490 564 37,000  Level Gander Center
Wed 06:27:04 AM 47.2000 -56.5667 74° East 490 564 37,000  Level Gander Center
Wed 06:28:04 AM 47.2167 -56.3333 84° East 490 564 37,000  Level Gander Center
Wed 06:29:04 AM 47.2500 -56.1667 74° East 490 564 37,000  Level Gander Center
Wed 06:30:04 AM 47.2667 -55.9333 84° East 490 564 37,000  Level Gander Center
Wed 06:31:04 AM 47.3000 -55.7667 74° East 490 564 37,000  Level Gander Center
Wed 06:32:04 AM 47.3167 -55.5333 84° East 490 564 37,000  Level Gander Center
Wed 06:33:04 AM 47.3333 -55.3667 82° East 490 564 37,000  Level Gander Center
Wed 06:34:04 AM 47.3667 -55.1667 76° East 500 575 37,000 -150 Level Gander Center
Wed 06:35:04 AM 47.3833 -54.9333 84° East 500 575 36,700 -1,300 Descending Gander Center
Wed 06:36:04 AM 47.4000 -54.7667 82° East 490 564 34,400 -2,750 Descending Gander Center
Wed 06:37:04 AM 47.4333 -54.5667 76° East 480 552 31,200 -3,500 Descending Gander Center
Wed 06:38:04 AM 47.4500 -54.3667 83° East 480 552 27,400 -4,000 Descending Gander Center
Wed 06:39:04 AM 47.4667 -54.1667 83° East 480 552 23,200 -3,900 Descending Gander Center
Wed 06:40:04 AM 47.4833 -53.9833 82° East 480 552 19,600 -3,450 Descending Gander Center
Wed 06:41:04 AM 47.5167 -53.7833 76° East 460 529 16,300 -3,350 Descending Gander Center
Wed 06:42:04 AM 47.5333 -53.6000 82° East 430 495 12,900 -2,800 Descending Gander Center
Wed 06:43:04 AM 47.5333 -53.4833 90° East 390 449 10,700 -1,850 Descending Gander Center
Wed 06:44:04 AM 47.5667 -53.3333 72° East 310 357 9,200 -1,500 Descending Gander Center
Wed 06:45:04 AM 47.5667 -53.2333 90° East 280 322 7,700 -1,550 Descending Gander Center
Wed 06:46:04 AM 47.5833 -53.1333 76° East 260 299 6,100 -1,600 Descending Gander Center
Wed 06:47:04 AM 47.5833 -53.0167 90° East 250 288 4,500 -1,450 Descending Gander Center
Wed 06:48:04 AM 47.6000 -52.9167 76° East 240 276 3,200 -1,200 Descending Gander Center
Wed 06:49:04 AM 47.6000 -52.8500 90° East 200 230 2,100 -1,100 Descending Gander Center

Login

Don't have an account? Register now (free) for customized features, flight alerts, and more!